Terminal Aerodrome Forecast
Issued by NWS Des Moines, IA

Current Version | Previous Version | Text Only | Print | Product List | Glossary On
Versions: 1 2 3 4 5 6 7 8 9 10 11 12 13 14 15 16 17 18 19 20 21 22
000
FTUS43 KDMX 190543
TAFALO
TAF
KALO 190543Z 1906/2006 16009KT P6SM OVC060
     FM191000 10008KT P6SM OVC035
     FM191200 07008KT P6SM VCSH OVC014
     FM191700 02009KT 3SM -DZ BR OVC011
     FM200300 01009KT 4SM -FZDZ BR OVC008=

USA.gov is the U.S. government's official web portal to all federal, state and local government web resources and services.